EST,Max TemperatureF,Mean TemperatureF,Min TemperatureF,Max Dew PointF,MeanDew PointF,Min DewpointF,Max Humidity, Mean Humidity, Min Humidity, Max Sea Level PressureIn, Mean Sea Level PressureIn, Min Sea Level PressureIn, Max VisibilityMiles, Mean VisibilityMiles, Min VisibilityMiles, Max Wind SpeedMPH, Mean Wind SpeedMPH, Max Gust SpeedMPH,PrecipitationIn, CloudCover, Events, WindDirDegrees
2012-11-1,55,45,35,40,37,31,89,66,57,29.62,29.60,29.57,10,10,10,16,7,26,0.00,5,,250
2012-11-2,55,50,46,40,35,30,76,60,44,29.71,29.63,29.59,10,10,10,14,8,22,0.00,8,,276
2012-11-3,54,48,41,33,31,27,70,54,40,29.90,29.80,29.72,10,10,10,21,12,29,0.00,3,,312
2012-11-4,54,43,33,32,31,28,82,60,43,29.98,29.94,29.91,10,10,9,14,9,23,0.00,2,,314
2012-11-5,46,40,27,30,25,16,63,54,42,30.18,30.04,29.96,10,10,10,14,8,23,0.00,5,,343
2012-11-6,44,31,18,28,19,12,78,57,35,30.25,30.19,30.09,10,10,10,15,3,22,0.00,0,,37
2012-11-7,42,38,35,36,32,27,93,78,55,30.06,29.80,29.66,10,8,2,30,21,46,0.68,8,Rain-Snow,18
2012-11-8,43,39,35,36,32,30,87,77,62,29.85,29.71,29.66,10,8,2,22,19,34,0.32,8,Rain,341
2012-11-9,53,43,33,30,26,21,82,53,30,30.19,30.03,29.86,10,10,10,20,13,29,0.00,0,,322
2012-11-10,55,42,30,42,36,28,92,73,49,30.46,30.33,30.20,10,10,7,9,2,,0.00,4,,293
2012-11-11,62,48,33,52,45,30,89,80,60,30.53,30.50,30.46,10,9,6,13,3,21,0.00,1,,199
2012-11-12,66,52,39,61,51,37,100,91,73,30.51,30.42,30.24,10,6,0,14,3,21,0.01,5,Fog,168
2012-11-13,62,53,44,61,49,28,94,82,53,30.44,30.26,30.16,10,9,2,20,11,29,0.13,8,Rain,310
2012-11-14,50,38,27,31,27,22,81,60,38,30.51,30.47,30.44,10,10,10,14,9,23,0.00,2,,15
2012-11-15,43,36,30,32,30,25,85,71,60,30.46,30.39,30.31,10,10,10,12,6,,0.00,5,,12
2012-11-16,46,36,25,32,28,20,89,74,50,30.44,30.34,30.30,10,10,10,9,2,,0.00,0,,357
2012-11-17,51,38,26,33,28,23,88,67,46,30.65,30.57,30.44,10,10,10,14,7,,0.00,0,,19
2012-11-18,51,39,27,38,33,24,89,72,54,30.69,30.64,30.59,10,10,6,13,6,,0.00,1,,43
2012-11-19,48,44,39,41,37,34,87,76,66,30.56,30.41,30.26,10,10,10,15,9,,0.00,5,,27
2012-11-20,50,41,32,39,35,30,93,80,61,30.24,30.17,30.13,10,10,7,12,5,,0.00,2,,23
2012-11-21,53,42,30,38,35,28,89,74,48,30.24,30.20,30.16,10,10,10,14,6,18,0.00,0,,26
2012-11-22,55,42,28,44,36,25,93,82,53,30.28,30.22,30.16,10,9,5,10,5,,0.00,2,,22
2012-11-23,55,42,28,48,35,25,100,85,66,30.14,30.00,29.70,10,6,0,9,2,,0.00,6,Fog,213
2012-11-24,50,43,36,45,24,15,83,48,31,29.81,29.71,29.64,10,10,10,26,12,34,0.00,4,,290
2012-11-25,42,37,32,22,18,15,61,47,37,29.98,29.89,29.81,10,10,10,22,12,30,0.00,2,,271
2012-11-26,48,34,21,23,20,16,78,55,34,30.28,30.12,29.98,10,10,10,17,7,23,0.00,1,,274
2012-11-27,42,34,25,36,33,19,93,85,60,30.32,30.24,30.19,10,8,4,15,6,22,0.57,8,Rain,16
2012-11-28,42,34,27,34,28,18,87,71,49,30.26,30.20,30.16,10,10,9,14,9,,0.00,5,,332
2012-11-29,45,32,19,26,22,17,89,62,39,30.35,30.31,30.27,10,10,8,14,7,22,0.00,0,,263
2012-11-30,46,34,23,32,27,19,85,67,49,30.48,30.41,30.33,10,10,7,13,5,17,0.00,5,,53